createdAt,value
2023-05-02T00:01:21.636Z,6.00
2023-05-02T00:03:48.574Z,5.13
2023-05-02T00:06:15.748Z,6.97
2023-05-02T00:08:42.867Z,5.90
2023-05-02T00:11:09.978Z,5.03
2023-05-02T00:13:37.014Z,7.27
2023-05-02T00:16:04.698Z,7.53
2023-05-02T00:18:31.749Z,5.90
2023-05-02T00:20:58.787Z,5.60
2023-05-02T00:23:25.774Z,6.10
2023-05-02T00:25:53.429Z,6.63
2023-05-02T00:28:20.458Z,7.47
2023-05-02T00:30:47.753Z,6.40
2023-05-02T00:33:15.853Z,7.37
2023-05-02T00:35:42.973Z,6.30
2023-05-02T00:38:10.018Z,6.77
2023-05-02T00:40:47.576Z,6.17
2023-05-02T00:43:15.467Z,6.53
2023-05-02T00:45:46.411Z,6.57
2023-05-02T00:48:13.617Z,8.93
2023-05-02T00:50:43.137Z,9.47
2023-05-02T00:53:10.960Z,11.00
2023-05-02T00:55:38.199Z,9.70
2023-05-02T00:58:16.750Z,9.47
2023-05-02T01:01:03.066Z,8.37
2023-05-02T01:03:46.165Z,9.63
2023-05-02T01:06:47.374Z,9.53
2023-05-02T01:09:49.521Z,9.23
2023-05-02T01:12:33.781Z,12.67
2023-05-02T01:15:05.871Z,11.77
2023-05-02T01:17:34.449Z,9.80
2023-05-02T01:20:07.825Z,8.57
2023-05-02T01:22:35.256Z,9.40
2023-05-02T01:25:16.903Z,8.40
2023-05-02T01:28:01.385Z,8.20
2023-05-02T01:30:30.815Z,9.10
2023-05-02T01:32:59.526Z,8.57
2023-05-02T01:35:27.661Z,8.20
2023-05-02T01:37:57.409Z,9.17
2023-05-02T01:40:26.348Z,9.37
2023-05-02T01:42:54.759Z,10.60
2023-05-02T01:45:23.277Z,10.17
2023-05-02T01:47:51.280Z,10.70
2023-05-02T01:50:23.212Z,14.67
2023-05-02T01:52:52.989Z,13.53
2023-05-02T01:55:20.331Z,14.67
2023-05-02T01:57:48.437Z,11.47
2023-05-02T02:00:18.416Z,12.07
2023-05-02T02:02:47.463Z,15.60
2023-05-02T02:05:15.521Z,13.33
2023-05-02T02:07:43.949Z,12.50
2023-05-02T02:10:11.181Z,15.87
2023-05-02T02:12:52.175Z,14.90
2023-05-02T02:15:25.559Z,14.90
2023-05-02T02:18:10.678Z,13.20
2023-05-02T02:20:38.933Z,13.47
2023-05-02T02:23:08.460Z,18.33
2023-05-02T02:25:37.438Z,16.33
2023-05-02T02:28:04.826Z,21.37
2023-05-02T02:30:32.012Z,15.37
2023-05-02T02:32:59.174Z,16.60
2023-05-02T02:35:50.020Z,17.67
2023-05-02T02:38:33.381Z,17.80
2023-05-02T02:41:16.468Z,19.13
2023-05-02T02:44:04.089Z,25.60
2023-05-02T02:46:56.265Z,19.03
2023-05-02T02:49:23.764Z,21.77
2023-05-02T02:52:27.904Z,25.10
2023-05-02T02:55:06.353Z,22.50
2023-05-02T02:57:43.919Z,27.47
2023-05-02T03:00:20.345Z,29.10
2023-05-02T03:02:47.929Z,29.70
2023-05-02T03:05:15.555Z,29.90
2023-05-02T03:07:42.665Z,33.13
2023-05-02T03:10:09.888Z,31.90
2023-05-02T03:12:39.921Z,33.80
2023-05-02T03:15:23.201Z,30.00
2023-05-02T03:17:50.709Z,30.77
2023-05-02T03:20:17.415Z,37.30
2023-05-02T03:22:44.444Z,33.17
2023-05-02T03:25:12.603Z,33.23
2023-05-02T03:27:43.806Z,31.27
2023-05-02T03:30:12.197Z,31.60
2023-05-02T03:32:39.305Z,30.07
2023-05-02T03:35:06.721Z,35.23
2023-05-02T03:37:38.908Z,30.47
2023-05-02T03:40:06.371Z,26.53
2023-05-02T03:42:39.913Z,26.07
2023-05-02T03:45:10.634Z,31.17
2023-05-02T03:47:37.887Z,26.33
2023-05-02T03:50:05.125Z,22.80
2023-05-02T03:52:33.992Z,23.67
2023-05-02T03:55:01.583Z,28.30
2023-05-02T03:57:32.289Z,30.23
2023-05-02T04:00:00.539Z,26.63
2023-05-02T04:02:38.881Z,25.43
2023-05-02T04:05:09.976Z,24.10
2023-05-02T04:07:38.217Z,28.17
2023-05-02T04:10:07.385Z,24.47
2023-05-02T04:12:39.801Z,30.83
2023-05-02T04:15:06.995Z,25.60
2023-05-02T04:17:34.726Z,24.87
2023-05-02T04:20:05.098Z,28.37
2023-05-02T04:22:34.399Z,22.67
2023-05-02T04:25:04.967Z,23.63
2023-05-02T04:27:33.717Z,22.03
2023-05-02T04:30:01.384Z,20.90
2023-05-02T04:32:29.065Z,23.53
2023-05-02T04:34:57.313Z,26.37
2023-05-02T04:37:24.585Z,23.10
2023-05-02T04:39:51.412Z,25.67
2023-05-02T04:42:22.682Z,24.03
2023-05-02T04:44:57.354Z,23.97
2023-05-02T04:47:24.086Z,23.20
2023-05-02T04:49:51.142Z,24.27
2023-05-02T04:52:18.614Z,20.50
2023-05-02T04:54:45.925Z,25.00
2023-05-02T04:57:12.978Z,24.80
2023-05-02T04:59:43.778Z,25.73
2023-05-02T05:02:12.715Z,23.90
2023-05-02T05:04:40.161Z,24.50
2023-05-02T05:07:07.384Z,24.67
2023-05-02T05:09:34.605Z,21.73
2023-05-02T05:12:01.972Z,28.93
2023-05-02T05:14:31.346Z,25.87
2023-05-02T05:16:58.553Z,26.47
2023-05-02T05:19:26.275Z,25.90
2023-05-02T05:21:53.529Z,26.70
2023-05-02T05:24:21.809Z,27.97
2023-05-02T05:26:50.766Z,20.07
2023-05-02T05:29:18.936Z,25.13
2023-05-02T05:31:46.104Z,26.97
2023-05-02T05:34:16.076Z,22.53
2023-05-02T05:36:44.299Z,23.87
2023-05-02T05:39:11.939Z,21.67
2023-05-02T05:41:40.724Z,23.23
2023-05-02T05:44:10.344Z,20.07
2023-05-02T05:46:37.913Z,22.90
2023-05-02T05:49:06.599Z,22.90
2023-05-02T05:51:35.445Z,22.37
2023-05-02T05:54:02.534Z,22.23
2023-05-02T05:56:31.142Z,20.93
2023-05-02T05:59:06.277Z,23.40
2023-05-02T06:01:34.116Z,21.00
2023-05-02T06:04:02.891Z,25.90
2023-05-02T06:06:31.586Z,24.60
2023-05-02T06:08:58.745Z,24.60
2023-05-02T06:11:26.089Z,18.80
2023-05-02T06:13:53.336Z,14.40
2023-05-02T06:16:20.617Z,12.03
2023-05-02T06:18:47.803Z,10.90
2023-05-02T06:21:14.842Z,8.27
2023-05-02T06:23:41.948Z,8.47
2023-05-02T06:26:10.078Z,8.60
2023-05-02T06:28:36.709Z,6.37
2023-05-02T06:31:05.807Z,7.40
2023-05-02T06:33:33.932Z,7.87
2023-05-02T06:36:02.031Z,7.13
2023-05-02T06:38:29.517Z,7.37
2023-05-02T06:40:56.618Z,6.73
2023-05-02T06:43:23.744Z,5.03
2023-05-02T06:45:54.401Z,4.87
2023-05-02T06:48:21.651Z,4.40
2023-05-02T06:50:49.063Z,2.33
2023-05-02T06:53:16.279Z,2.10
2023-05-02T06:55:44.160Z,3.07
2023-05-02T06:58:11.232Z,2.10
2023-05-02T07:00:38.978Z,1.57
2023-05-02T07:03:06.264Z,5.77
2023-05-02T07:05:33.336Z,2.83
2023-05-02T07:08:00.468Z,4.97
2023-05-02T07:10:27.594Z,2.53
2023-05-02T07:12:54.644Z,4.50
2023-05-02T07:15:21.261Z,3.87
2023-05-02T07:17:49.422Z,2.63
2023-05-02T07:20:16.546Z,4.43
2023-05-02T07:22:43.692Z,3.87
2023-05-02T07:25:10.903Z,4.57
2023-05-02T07:27:37.544Z,4.60
2023-05-02T07:30:05.358Z,4.20
2023-05-02T07:32:32.795Z,5.43
2023-05-02T07:34:59.950Z,3.73
2023-05-02T07:37:27.279Z,5.83
2023-05-02T07:39:54.385Z,8.07
2023-05-02T07:42:21.512Z,5.47
2023-05-02T07:44:48.536Z,6.97
2023-05-02T07:47:15.225Z,5.37
2023-05-02T07:49:42.263Z,6.77
2023-05-02T07:52:08.920Z,7.07
2023-05-02T07:54:36.010Z,7.63
2023-05-02T07:57:05.076Z,4.87
2023-05-02T07:59:32.173Z,5.40
2023-05-02T08:01:59.258Z,3.73
2023-05-02T08:04:26.861Z,9.80
2023-05-02T08:06:54.079Z,5.80
2023-05-02T08:09:21.217Z,5.43
2023-05-02T08:11:48.298Z,4.27
2023-05-02T08:14:16.105Z,6.80
2023-05-02T08:16:46.087Z,5.47
2023-05-02T08:19:13.618Z,5.13
2023-05-02T08:21:40.780Z,12.73
2023-05-02T08:24:07.815Z,14.30
2023-05-02T08:26:34.471Z,12.07
2023-05-02T08:29:03.094Z,6.80
2023-05-02T08:31:30.250Z,20.77
2023-05-02T08:33:57.386Z,10.20
2023-05-02T08:36:24.869Z,10.13
2023-05-02T08:38:51.932Z,5.57
2023-05-02T08:41:19.409Z,11.90
2023-05-02T08:43:47.171Z,11.43
2023-05-02T08:46:16.246Z,10.00
2023-05-02T08:48:45.193Z,5.90
2023-05-02T08:51:14.668Z,7.93
2023-05-02T08:53:42.334Z,6.07
2023-05-02T08:56:10.893Z,8.37
2023-05-02T08:58:38.921Z,13.37
2023-05-02T09:01:20.824Z,11.30
2023-05-02T09:03:48.539Z,8.87
2023-05-02T09:06:22.721Z,9.97
2023-05-02T09:08:52.488Z,8.77
2023-05-02T09:11:20.076Z,7.27
2023-05-02T09:13:51.716Z,9.17
2023-05-02T09:16:24.036Z,10.70
2023-05-02T09:18:53.007Z,9.67
2023-05-02T09:21:27.259Z,10.67
2023-05-02T09:23:55.926Z,10.67
2023-05-02T09:26:33.932Z,13.47
2023-05-02T09:29:02.358Z,14.00
2023-05-02T09:34:17.938Z,10.37
2023-05-02T09:36:46.711Z,11.80
2023-05-02T09:39:15.668Z,9.37
2023-05-02T09:41:44.062Z,10.10
2023-05-02T09:44:12.495Z,5.37
2023-05-02T09:46:43.914Z,8.60
2023-05-02T09:49:11.184Z,11.87
2023-05-02T09:51:38.064Z,7.70
2023-05-02T09:54:04.763Z,12.57
2023-05-02T09:56:31.887Z,5.83
2023-05-02T09:59:27.851Z,9.80
2023-05-02T10:01:59.776Z,10.77
2023-05-02T10:04:27.933Z,9.47
2023-05-02T10:06:55.693Z,8.87
2023-05-02T10:09:23.087Z,8.33
2023-05-02T10:11:54.589Z,8.77
2023-05-02T10:14:23.435Z,6.93
2023-05-02T10:17:12.625Z,5.90
2023-05-02T10:19:53.923Z,9.47
2023-05-02T10:22:22.149Z,8.17
2023-05-02T10:24:53.198Z,11.53
2023-05-02T10:27:20.021Z,15.43
2023-05-02T10:29:47.526Z,8.63
2023-05-02T10:32:16.955Z,5.83
2023-05-02T10:34:44.181Z,4.80
2023-05-02T10:37:12.377Z,12.30
2023-05-02T10:39:39.443Z,5.87
2023-05-02T10:42:07.793Z,8.37
2023-05-02T10:44:34.910Z,5.83
2023-05-02T10:47:02.094Z,7.57
2023-05-02T10:49:29.865Z,5.50
2023-05-02T10:51:56.999Z,7.00
2023-05-02T10:54:25.089Z,11.40
2023-05-02T10:57:03.628Z,7.80
2023-05-02T10:59:33.506Z,10.20
2023-05-02T11:02:01.384Z,10.03
2023-05-02T11:05:05.424Z,5.33
2023-05-02T11:07:36.418Z,10.67
2023-05-02T11:10:18.013Z,4.97
2023-05-02T11:12:53.013Z,5.00
2023-05-02T11:15:28.822Z,4.37
2023-05-02T11:18:08.001Z,4.30
2023-05-02T11:20:35.906Z,6.00
2023-05-02T11:23:15.190Z,2.67
2023-05-02T11:25:43.636Z,11.10
2023-05-02T11:28:50.365Z,5.87
2023-05-02T11:31:29.199Z,6.33
2023-05-02T11:33:57.504Z,7.20
2023-05-02T11:36:34.777Z,7.10
2023-05-02T11:39:03.196Z,6.23
2023-05-02T11:41:39.786Z,9.73
2023-05-02T11:44:07.208Z,6.93
2023-05-02T11:46:34.835Z,7.40
2023-05-02T11:49:02.131Z,7.47
2023-05-02T11:51:29.273Z,6.03
2023-05-02T11:53:56.751Z,10.80
2023-05-02T11:56:24.674Z,8.43
2023-05-02T11:59:02.042Z,9.20
2023-05-02T12:01:30.101Z,4.73
2023-05-02T12:04:08.023Z,6.53
2023-05-02T12:06:35.453Z,9.20
2023-05-02T12:09:10.495Z,6.17
2023-05-02T12:11:38.504Z,6.00
2023-05-02T12:14:06.668Z,8.73
2023-05-02T12:16:33.895Z,14.43
2023-05-02T12:19:01.165Z,7.47
2023-05-02T12:21:29.795Z,18.20
2023-05-02T12:23:57.072Z,6.30
2023-05-02T12:26:32.732Z,8.17
2023-05-02T12:29:00.850Z,7.53
2023-05-02T12:31:30.925Z,9.53
2023-05-02T12:33:59.970Z,16.53
2023-05-02T12:36:28.492Z,7.40
2023-05-02T12:38:59.065Z,8.23
2023-05-02T12:41:37.373Z,3.60
2023-05-02T12:44:05.489Z,9.60
2023-05-02T12:46:32.974Z,7.10
2023-05-02T12:49:11.829Z,6.90
2023-05-02T12:51:39.956Z,9.33
2023-05-02T12:54:07.284Z,9.77
2023-05-02T12:56:41.369Z,5.67
2023-05-02T12:59:08.269Z,16.67
2023-05-02T13:01:35.681Z,9.30
2023-05-02T13:04:02.862Z,8.87
2023-05-02T13:06:29.771Z,8.33
2023-05-02T13:08:56.438Z,7.43
2023-05-02T13:11:24.149Z,6.70
2023-05-02T13:13:51.262Z,9.73
2023-05-02T13:16:18.425Z,11.20
2023-05-02T13:18:47.189Z,9.83
2023-05-02T13:21:15.189Z,8.43
2023-05-02T13:23:44.073Z,11.90
2023-05-02T13:26:11.279Z,8.63
2023-05-02T13:28:38.379Z,17.70
2023-05-02T13:31:05.679Z,6.10
2023-05-02T13:33:32.307Z,4.60
2023-05-02T13:35:59.469Z,5.33
2023-05-02T13:38:26.904Z,4.50
2023-05-02T13:40:54.171Z,5.47
2023-05-02T13:43:21.321Z,8.93
2023-05-02T13:45:48.993Z,7.70
2023-05-02T13:48:16.460Z,4.90
2023-05-02T13:50:43.695Z,6.37
2023-05-02T13:53:11.221Z,7.07
2023-05-02T13:55:38.390Z,10.27
2023-05-02T13:58:05.848Z,6.73
2023-05-02T14:00:33.166Z,9.07
2023-05-02T14:03:00.357Z,6.13
2023-05-02T14:05:27.468Z,9.70
2023-05-02T14:07:54.475Z,9.67
2023-05-02T14:10:21.566Z,5.07
2023-05-02T14:12:48.825Z,4.27
2023-05-02T14:15:15.958Z,4.93
2023-05-02T14:17:43.047Z,8.97
2023-05-02T14:20:11.021Z,4.33
2023-05-02T14:22:38.099Z,3.83
2023-05-02T14:25:05.808Z,6.83
2023-05-02T14:27:32.922Z,10.53
2023-05-02T14:30:00.545Z,4.47
2023-05-02T14:32:28.050Z,4.20
2023-05-02T14:34:55.105Z,4.17
2023-05-02T14:37:22.166Z,5.30
2023-05-02T14:39:54.769Z,6.00
2023-05-02T14:42:23.247Z,5.70
2023-05-02T14:44:50.335Z,8.90
2023-05-02T14:47:17.553Z,5.27
2023-05-02T14:49:44.838Z,5.80
2023-05-02T14:52:11.876Z,4.67
2023-05-02T14:54:38.946Z,6.40
2023-05-02T14:57:06.962Z,9.30
2023-05-02T14:59:35.841Z,6.63
2023-05-02T15:02:02.970Z,6.23
2023-05-02T15:04:30.643Z,7.93
2023-05-02T15:06:58.526Z,3.03
2023-05-02T15:09:26.565Z,4.47
2023-05-02T15:11:53.717Z,4.00
2023-05-02T15:14:20.800Z,10.13
2023-05-02T15:16:47.866Z,8.93
2023-05-02T15:19:14.482Z,8.73
2023-05-02T15:21:41.613Z,9.80
2023-05-02T15:24:08.659Z,7.70
2023-05-02T15:26:35.810Z,9.17
2023-05-02T15:29:02.988Z,5.23
2023-05-02T15:31:30.241Z,7.70
2023-05-02T15:33:57.345Z,11.37
2023-05-02T15:36:28.791Z,5.87
2023-05-02T15:38:56.323Z,9.00
2023-05-02T15:41:26.947Z,4.33
2023-05-02T15:43:53.991Z,6.57
2023-05-02T15:46:21.132Z,7.17
2023-05-02T15:48:48.459Z,6.90
2023-05-02T15:51:15.702Z,13.17
2023-05-02T15:53:44.743Z,5.70
2023-05-02T15:56:12.031Z,9.77
2023-05-02T15:58:39.176Z,9.43
2023-05-02T16:01:06.305Z,9.50
2023-05-02T16:03:37.068Z,8.17
2023-05-02T16:06:06.394Z,5.57
2023-05-02T16:08:33.552Z,4.03
2023-05-02T16:11:01.732Z,6.47
2023-05-02T16:13:28.845Z,4.63
2023-05-02T16:15:56.140Z,6.47
2023-05-02T16:18:28.022Z,6.00
2023-05-02T16:20:56.945Z,6.20
2023-05-02T16:23:25.028Z,7.07
2023-05-02T16:25:57.733Z,4.40
2023-05-02T16:28:24.996Z,5.90
2023-05-02T16:30:52.459Z,4.70
2023-05-02T16:33:19.715Z,4.60
2023-05-02T16:35:46.811Z,6.17
2023-05-02T16:38:13.877Z,6.70
2023-05-02T16:40:40.963Z,5.17
2023-05-02T16:43:08.903Z,5.50
2023-05-02T16:45:35.994Z,13.10
2023-05-02T16:48:04.403Z,5.50
2023-05-02T16:50:31.705Z,9.13
2023-05-02T16:52:58.760Z,6.07
2023-05-02T16:55:25.422Z,52.17
2023-05-02T16:57:52.476Z,4.20
2023-05-02T17:00:19.700Z,5.43
2023-05-02T17:02:47.418Z,5.43
2023-05-02T17:05:14.578Z,6.13
2023-05-02T17:07:41.635Z,7.30
2023-05-02T17:10:09.339Z,3.90
2023-05-02T17:12:36.375Z,5.63
2023-05-02T17:15:04.392Z,5.13
2023-05-02T17:17:31.691Z,5.03
2023-05-02T17:19:58.764Z,4.73
2023-05-02T17:22:26.090Z,5.23
2023-05-02T17:24:54.088Z,5.07
2023-05-02T17:27:21.307Z,7.77
2023-05-02T17:29:47.932Z,5.80
2023-05-02T17:32:15.709Z,3.87
2023-05-02T17:34:45.766Z,4.10
2023-05-02T17:37:12.588Z,5.57
2023-05-02T17:39:39.654Z,4.20
2023-05-02T17:42:07.140Z,4.47
2023-05-02T17:44:37.180Z,4.20
2023-05-02T17:47:04.791Z,4.40
2023-05-02T17:49:32.058Z,4.97
2023-05-02T17:51:59.198Z,6.83
2023-05-02T17:54:26.239Z,7.10
2023-05-02T17:56:53.373Z,4.73
2023-05-02T17:59:20.594Z,3.27
2023-05-02T18:01:47.396Z,3.47
2023-05-02T18:04:15.477Z,2.97
2023-05-02T18:06:42.554Z,3.90
2023-05-02T18:09:09.702Z,3.70
2023-05-02T18:11:39.898Z,2.17
2023-05-02T18:14:07.068Z,4.60
2023-05-02T18:16:36.012Z,2.70
2023-05-02T18:19:03.197Z,3.90
2023-05-02T18:21:34.706Z,7.83
2023-05-02T18:24:01.831Z,2.60
2023-05-02T18:26:28.899Z,3.10
2023-05-02T18:28:55.963Z,5.93
2023-05-02T18:31:23.810Z,2.90
2023-05-02T18:33:51.570Z,2.23
2023-05-02T18:36:25.080Z,2.33
2023-05-02T18:38:51.923Z,4.73
2023-05-02T18:41:18.999Z,7.37
2023-05-02T18:43:46.419Z,10.17
2023-05-02T18:46:13.535Z,2.67
2023-05-02T18:48:40.632Z,5.33
2023-05-02T18:51:07.726Z,3.70
2023-05-02T18:53:35.113Z,2.03
2023-05-02T18:56:02.165Z,3.63
2023-05-02T18:58:29.238Z,5.20
2023-05-02T19:00:56.357Z,3.33
2023-05-02T19:03:23.950Z,7.17
2023-05-02T19:05:51.330Z,5.07
2023-05-02T19:08:18.477Z,3.97
2023-05-02T19:10:45.514Z,2.57
2023-05-02T19:13:12.542Z,8.20
2023-05-02T19:15:39.729Z,5.50
2023-05-02T19:18:07.108Z,6.27
2023-05-02T19:20:34.275Z,3.63
2023-05-02T19:23:18.496Z,3.57
2023-05-02T19:25:47.335Z,2.60
2023-05-02T19:28:16.698Z,6.40
2023-05-02T19:30:44.709Z,2.23
2023-05-02T19:33:12.945Z,8.57
2023-05-02T19:35:40.187Z,3.77
2023-05-02T19:38:06.856Z,3.50
2023-05-02T19:40:34.009Z,4.97
2023-05-02T19:43:01.039Z,3.10
2023-05-02T19:45:28.106Z,3.60
2023-05-02T19:47:55.453Z,3.83
2023-05-02T19:50:23.384Z,4.27
2023-05-02T19:52:50.545Z,2.03
2023-05-02T19:55:18.445Z,6.03
2023-05-02T19:57:45.538Z,3.70
2023-05-02T20:00:13.911Z,2.90
2023-05-02T20:02:41.094Z,7.90
2023-05-02T20:05:08.138Z,6.47
2023-05-02T20:07:34.792Z,4.93
2023-05-02T20:10:02.106Z,4.37
2023-05-02T20:12:29.406Z,1.90
2023-05-02T20:14:56.435Z,3.03
2023-05-02T20:17:23.043Z,2.87
2023-05-02T20:19:50.170Z,3.80
2023-05-02T20:22:18.086Z,3.97
2023-05-02T20:24:45.169Z,5.27
2023-05-02T20:27:12.243Z,2.33
2023-05-02T20:29:39.279Z,6.80
2023-05-02T20:32:06.523Z,3.90
2023-05-02T20:34:36.398Z,2.57
2023-05-02T20:37:06.806Z,4.87
2023-05-02T20:39:33.565Z,4.23
2023-05-02T20:42:01.253Z,1.47
2023-05-02T20:44:28.581Z,2.50
2023-05-02T20:46:55.812Z,3.53
2023-05-02T20:49:22.893Z,3.37
2023-05-02T20:51:50.436Z,2.50
2023-05-02T20:54:18.157Z,2.20
2023-05-02T20:56:45.378Z,2.47
2023-05-02T20:59:12.508Z,3.63
2023-05-02T21:01:39.606Z,2.67
2023-05-02T21:04:06.321Z,1.40
2023-05-02T21:06:33.602Z,3.67
2023-05-02T21:09:01.887Z,3.73
2023-05-02T21:11:28.859Z,3.97
2023-05-02T21:13:56.031Z,5.93
2023-05-02T21:16:22.781Z,3.70
2023-05-02T21:18:49.945Z,3.00
2023-05-02T21:21:17.066Z,3.67
2023-05-02T21:23:44.183Z,5.30
2023-05-02T21:26:10.856Z,2.20
2023-05-02T21:28:41.080Z,1.87
2023-05-02T21:31:08.401Z,2.83
2023-05-02T21:33:35.854Z,2.00
2023-05-02T21:36:03.085Z,2.90
2023-05-02T21:38:30.361Z,3.67
2023-05-02T21:41:04.890Z,2.50
2023-05-02T21:43:34.981Z,5.03
2023-05-02T21:46:02.082Z,2.97
2023-05-02T21:48:29.144Z,2.07
2023-05-02T21:50:56.228Z,5.33
2023-05-02T21:53:23.336Z,5.53
2023-05-02T21:55:50.682Z,3.80
2023-05-02T21:58:17.727Z,3.37
2023-05-02T22:00:45.222Z,1.57
2023-05-02T22:03:12.421Z,1.60
2023-05-02T22:05:43.068Z,1.80
2023-05-02T22:08:11.384Z,3.83
2023-05-02T22:10:39.774Z,1.87
2023-05-02T22:13:09.474Z,2.10
2023-05-02T22:15:37.599Z,4.37
2023-05-02T22:18:06.762Z,4.20
2023-05-02T22:20:34.108Z,1.73
2023-05-02T22:23:01.241Z,1.20
2023-05-02T22:25:28.882Z,1.60
2023-05-02T22:27:55.944Z,3.43
2023-05-02T22:30:23.083Z,1.73
2023-05-02T22:32:50.223Z,3.73
2023-05-02T22:35:18.010Z,3.43
2023-05-02T22:37:45.058Z,4.10
2023-05-02T22:40:12.593Z,2.40
2023-05-02T22:42:39.657Z,2.80
2023-05-02T22:45:07.767Z,1.23
2023-05-02T22:47:34.862Z,1.30
2023-05-02T22:50:05.621Z,2.10
2023-05-02T22:52:37.708Z,7.27
2023-05-02T22:55:09.089Z,2.83
2023-05-02T22:57:37.012Z,2.77
2023-05-02T23:00:05.389Z,3.37
2023-05-02T23:02:32.829Z,1.50
2023-05-02T23:05:00.003Z,2.47
2023-05-02T23:07:27.045Z,2.57
2023-05-02T23:09:53.974Z,1.80
2023-05-02T23:12:21.047Z,1.87
2023-05-02T23:14:48.091Z,1.53
2023-05-02T23:17:15.147Z,1.60
2023-05-02T23:19:42.438Z,3.37
2023-05-02T23:22:09.473Z,2.10
2023-05-02T23:24:36.564Z,1.87
2023-05-02T23:27:03.789Z,4.77
2023-05-02T23:29:30.962Z,1.53
2023-05-02T23:31:58.160Z,1.70
2023-05-02T23:34:25.980Z,3.47
2023-05-02T23:36:53.216Z,2.47
2023-05-02T23:39:20.297Z,2.47
2023-05-02T23:41:47.364Z,2.87
2023-05-02T23:44:13.974Z,3.23
2023-05-02T23:46:41.046Z,4.03
2023-05-02T23:49:08.210Z,2.93
2023-05-02T23:51:37.605Z,1.83
2023-05-02T23:54:04.347Z,2.87
2023-05-02T23:56:31.465Z,4.70
2023-05-02T23:58:58.536Z,2.17
